Terminal Aerodrome Forecast
Issued by NWS Upton, NY

Home | Current Version | Previous Version | Text Only | Print | Product List | Glossary On
Versions: 1 2 3 4 5 6 7 8 9 10 11 12 13 14 15 16 17 18 19 20 21 22 23 24 25 26 27 28 29 30
000
FTUS41 KOKX 061339 AAA
TAFEWR
TAF AMD
KEWR 061339Z 0614/0718 05008KT P6SM SCT120 BKN250
     FM061800 10009KT P6SM SCT035 BKN120
     FM062300 10009G16KT 5SM -RA BKN030 BKN100
     FM070100 08009G16KT 4SM -RA BR BKN012 OVC020
     FM070300 05009G16KT 3SM -RADZ BR BKN007 OVC010
     FM071200 06006KT 3SM -DZ BR BKN007 OVC010=

USA.gov is the U.S. government's official web portal to all federal, state and local government web resources and services.